createdAt,value
2018-04-25T00:00:18.084Z,8.9
2018-04-25T00:01:20.471Z,8.9
2018-04-25T00:02:22.857Z,9
2018-04-25T00:03:25.243Z,9
2018-04-25T00:04:27.630Z,9
2018-04-25T00:05:30.006Z,9
2018-04-25T00:06:32.673Z,8.9
2018-04-25T00:07:35.046Z,8.9
2018-04-25T00:08:37.732Z,8.9
2018-04-25T00:09:40.119Z,8.9
2018-04-25T00:10:42.501Z,8.9
2018-04-25T00:11:44.880Z,8.9
2018-04-25T00:12:47.268Z,8.9
2018-04-25T00:13:49.649Z,8.9
2018-04-25T00:14:52.038Z,8.9
2018-04-25T00:15:54.418Z,8.8
2018-04-25T00:16:57.159Z,8.9
2018-04-25T00:17:59.536Z,8.9
2018-04-25T00:19:01.908Z,8.9
2018-04-25T00:20:04.299Z,8.9
2018-04-25T00:21:06.678Z,8.9
2018-04-25T00:22:09.068Z,8.8
2018-04-25T00:23:11.449Z,8.8
2018-04-25T00:24:14.223Z,8.9
2018-04-25T00:25:16.604Z,8.9
2018-04-25T00:26:19.003Z,8.9
2018-04-25T00:27:21.958Z,8.8
2018-04-25T00:28:24.351Z,8.9
2018-04-25T00:29:26.735Z,8.8
2018-04-25T00:30:29.113Z,8.9
2018-04-25T00:31:31.501Z,8.9
2018-04-25T00:32:34.271Z,8.9
2018-04-25T00:33:37.232Z,8.9
2018-04-25T00:34:39.611Z,8.9
2018-04-25T00:35:41.980Z,8.9
2018-04-25T00:36:44.364Z,8.9
2018-04-25T00:37:46.749Z,8.9
2018-04-25T00:38:49.137Z,8.9
2018-04-25T00:39:51.525Z,8.9
2018-04-25T00:40:53.904Z,8.9
2018-04-25T00:41:56.289Z,8.9
2018-04-25T00:42:58.666Z,8.9
2018-04-25T00:44:01.060Z,8.8
2018-04-25T00:45:03.462Z,8.8
2018-04-25T00:46:05.842Z,8.8
2018-04-25T00:47:08.220Z,8.9
2018-04-25T00:48:10.609Z,8.9
2018-04-25T00:49:12.985Z,8.9
2018-04-25T00:50:15.367Z,8.9
2018-04-25T00:51:17.766Z,8.8
2018-04-25T00:52:20.136Z,8.8
2018-04-25T00:53:22.517Z,8.8
2018-04-25T00:54:25.479Z,8.8
2018-04-25T00:55:27.866Z,8.8
2018-04-25T00:56:30.250Z,8.8
2018-04-25T00:57:32.637Z,8.8
2018-04-25T00:58:35.302Z,8.8
2018-04-25T00:59:37.978Z,8.8
2018-04-25T01:00:40.356Z,8.8
2018-04-25T01:01:43.014Z,8.7
2018-04-25T01:02:45.769Z,8.8
2018-04-25T01:03:48.430Z,8.7
2018-04-25T01:04:51.105Z,8.7
2018-04-25T01:05:53.489Z,8.7
2018-04-25T01:06:55.855Z,8.8
2018-04-25T01:07:58.523Z,8.8
2018-04-25T01:09:01.194Z,8.8
2018-04-25T01:10:03.572Z,8.8
2018-04-25T01:11:05.957Z,8.7
2018-04-25T01:12:08.343Z,8.7
2018-04-25T01:13:10.719Z,8.7
2018-04-25T01:14:13.112Z,8.7
2018-04-25T01:15:15.783Z,8.7
2018-04-25T01:16:18.167Z,8.7
2018-04-25T01:17:20.551Z,8.7
2018-04-25T01:18:22.926Z,8.7
2018-04-25T01:19:25.326Z,8.7
2018-04-25T01:20:27.692Z,8.7
2018-04-25T01:21:30.065Z,8.7
2018-04-25T01:22:32.439Z,8.7
2018-04-25T01:23:35.207Z,8.7
2018-04-25T01:24:37.590Z,8.7
2018-04-25T01:25:39.978Z,8.7
2018-04-25T01:26:42.358Z,8.7
2018-04-25T01:27:44.736Z,8.7
2018-04-25T01:28:47.123Z,8.8
2018-04-25T01:29:49.797Z,8.7
2018-04-25T01:30:52.176Z,8.8
2018-04-25T01:31:54.562Z,8.7
2018-04-25T01:32:56.929Z,8.7
2018-04-25T01:33:59.597Z,8.8
2018-04-25T01:35:02.389Z,8.8
2018-04-25T01:36:05.041Z,8.7
2018-04-25T01:37:08.082Z,8.7
2018-04-25T01:38:10.742Z,8.7
2018-04-25T01:39:13.124Z,8.7
2018-04-25T01:40:15.488Z,8.7
2018-04-25T01:41:17.880Z,8.7
2018-04-25T01:42:20.266Z,8.7
2018-04-25T01:43:22.955Z,8.7
2018-04-25T01:44:25.619Z,8.7
2018-04-25T01:45:28.363Z,8.7
2018-04-25T01:46:30.745Z,8.7
2018-04-25T01:47:33.514Z,8.7
2018-04-25T01:48:36.279Z,8.7
2018-04-25T01:49:39.222Z,8.7
2018-04-25T01:50:41.607Z,8.7
2018-04-25T01:51:43.990Z,8.7
2018-04-25T01:52:46.371Z,8.7
2018-04-25T01:53:48.748Z,8.8
2018-04-25T01:54:51.137Z,8.8
2018-04-25T01:55:53.518Z,8.8
2018-04-25T01:56:56.340Z,8.8
2018-04-25T01:57:58.951Z,8.8
2018-04-25T01:59:01.339Z,8.8
2018-04-25T02:00:03.996Z,8.8
2018-04-25T02:01:07.147Z,8.8
2018-04-25T02:02:09.523Z,8.8
2018-04-25T02:03:12.189Z,8.8
2018-04-25T02:04:14.576Z,8.8
2018-04-25T02:05:16.951Z,8.9
2018-04-25T02:06:19.340Z,8.9
2018-04-25T02:07:22.294Z,8.9
2018-04-25T02:08:24.665Z,8.9
2018-04-25T02:09:27.062Z,8.9
2018-04-25T02:10:29.827Z,8.9
2018-04-25T02:11:32.211Z,8.9
2018-04-25T02:12:34.586Z,8.9
2018-04-25T02:13:36.982Z,8.9
2018-04-25T02:14:39.356Z,8.9
2018-04-25T02:15:42.011Z,8.9
2018-04-25T02:16:44.386Z,8.9
2018-04-25T02:17:47.153Z,8.9
2018-04-25T02:18:50.093Z,8.9
2018-04-25T02:19:52.479Z,9
2018-04-25T02:20:54.853Z,9
2018-04-25T02:21:57.523Z,9
2018-04-25T02:22:59.914Z,9
2018-04-25T02:24:02.569Z,9
2018-04-25T02:25:04.960Z,9
2018-04-25T02:26:07.341Z,9
2018-04-25T02:27:09.721Z,9
2018-04-25T02:28:12.105Z,9.1
2018-04-25T02:29:15.068Z,9.1
2018-04-25T02:30:17.440Z,9.1
2018-04-25T02:31:19.823Z,9.1
2018-04-25T02:32:22.480Z,9.1
2018-04-25T02:33:25.163Z,9.1
2018-04-25T02:34:27.820Z,9.1
2018-04-25T02:35:30.220Z,9.1
2018-04-25T02:36:32.599Z,9.1
2018-04-25T02:37:35.542Z,9.2
2018-04-25T02:38:37.928Z,9.2
2018-04-25T02:39:40.869Z,9.2
2018-04-25T02:40:43.847Z,9.2
2018-04-25T02:41:46.530Z,9.2
2018-04-25T02:42:48.907Z,9.3
2018-04-25T02:43:52.236Z,9.3
2018-04-25T02:44:54.618Z,9.3
2018-04-25T02:45:57.384Z,9.3
2018-04-25T02:46:59.769Z,9.3
2018-04-25T02:48:02.445Z,9.3
2018-04-25T02:49:04.821Z,9.4
2018-04-25T02:50:07.209Z,9.4
2018-04-25T02:51:09.599Z,9.4
2018-04-25T02:52:12.262Z,9.4
2018-04-25T02:53:14.644Z,9.5
2018-04-25T02:54:17.038Z,9.5
2018-04-25T02:55:20.260Z,9.5
2018-04-25T02:56:23.307Z,9.5
2018-04-25T02:57:26.240Z,9.6
2018-04-25T02:58:28.996Z,9.6
2018-04-25T02:59:31.656Z,9.7
2018-04-25T03:00:34.320Z,9.7
2018-04-25T03:01:36.697Z,9.8
2018-04-25T03:02:39.080Z,9.8
2018-04-25T03:03:41.846Z,9.8
2018-04-25T03:04:44.225Z,9.8
2018-04-25T03:05:46.624Z,9.8
2018-04-25T03:06:48.998Z,9.8
2018-04-25T03:07:51.376Z,9.9
2018-04-25T03:08:53.759Z,9.9
2018-04-25T03:09:56.418Z,9.9
2018-04-25T03:10:59.388Z,9.9
2018-04-25T03:12:02.149Z,9.9
2018-04-25T03:13:04.927Z,9.9
2018-04-25T03:14:07.577Z,9.9
2018-04-25T03:15:10.236Z,9.9
2018-04-25T03:16:12.896Z,10
2018-04-25T03:17:15.276Z,10
2018-04-25T03:18:17.942Z,10
2018-04-25T03:19:20.328Z,10
2018-04-25T03:20:22.707Z,10
2018-04-25T03:21:25.368Z,10.1
2018-04-25T03:22:27.786Z,10.1
2018-04-25T03:23:30.131Z,10.1
2018-04-25T03:24:32.505Z,10.1
2018-04-25T03:25:35.161Z,10.1
2018-04-25T03:26:38.112Z,10.1
2018-04-25T03:27:40.495Z,10.1
2018-04-25T03:28:42.869Z,10.1
2018-04-25T03:29:45.260Z,10.1
2018-04-25T03:30:48.862Z,10.1
2018-04-25T03:31:51.846Z,10.1
2018-04-25T03:32:54.227Z,10.1
2018-04-25T03:33:56.610Z,10.2
2018-04-25T03:34:58.998Z,10.1
2018-04-25T03:36:01.378Z,10.1
2018-04-25T03:37:03.754Z,10.1
2018-04-25T03:38:06.131Z,10.2
2018-04-25T03:39:08.517Z,10.1
2018-04-25T03:40:11.454Z,10.2
2018-04-25T03:41:13.833Z,10.2
2018-04-25T03:42:16.214Z,10.2
2018-04-25T03:43:18.596Z,10.2
2018-04-25T03:44:20.987Z,10.2
2018-04-25T03:45:23.936Z,10.2
2018-04-25T03:46:26.584Z,10.2
2018-04-25T03:47:29.260Z,10.2
2018-04-25T03:48:31.640Z,10.2
2018-04-25T03:49:34.024Z,10.2
2018-04-25T03:50:36.686Z,10.2
2018-04-25T03:51:39.062Z,10.2
2018-04-25T03:52:41.443Z,10.2
2018-04-25T03:53:43.826Z,10.2
2018-04-25T03:54:46.206Z,10.2
2018-04-25T03:55:48.570Z,10.2
2018-04-25T03:56:50.960Z,10.3
2018-04-25T03:57:53.650Z,10.3
2018-04-25T03:58:56.030Z,10.3
2018-04-25T03:59:58.413Z,10.3
2018-04-25T04:01:00.790Z,10.3
2018-04-25T04:02:03.170Z,10.3
2018-04-25T04:03:05.557Z,10.3
2018-04-25T04:04:07.930Z,10.3
2018-04-25T04:05:10.295Z,10.4
2018-04-25T04:06:12.673Z,10.4
2018-04-25T04:07:15.050Z,10.4
2018-04-25T04:08:17.428Z,10.4
2018-04-25T04:09:20.090Z,10.4
2018-04-25T04:10:22.763Z,10.4
2018-04-25T04:11:25.144Z,10.4
2018-04-25T04:12:27.519Z,10.4
2018-04-25T04:13:29.908Z,10.4
2018-04-25T04:14:32.296Z,10.4
2018-04-25T04:15:35.059Z,10.4
2018-04-25T04:16:37.443Z,10.4
2018-04-25T04:17:39.823Z,10.4
2018-04-25T04:18:42.207Z,10.4
2018-04-25T04:19:44.991Z,10.4
2018-04-25T04:20:47.367Z,10.4
2018-04-25T04:21:49.750Z,10.5
2018-04-25T04:22:52.711Z,10.5
2018-04-25T04:23:55.095Z,10.5
2018-04-25T04:24:58.650Z,10.5
2018-04-25T04:26:01.015Z,10.5
2018-04-25T04:27:03.397Z,10.5
2018-04-25T04:28:05.777Z,10.5
2018-04-25T04:29:08.174Z,10.5
2018-04-25T04:30:10.545Z,10.6
2018-04-25T04:31:12.932Z,10.6
2018-04-25T04:32:15.309Z,10.6
2018-04-25T04:33:17.696Z,10.6
2018-04-25T04:34:20.074Z,10.6
2018-04-25T04:35:22.737Z,10.6
2018-04-25T04:36:25.193Z,10.6
2018-04-25T04:37:27.517Z,10.7
2018-04-25T04:38:30.183Z,10.7
2018-04-25T04:39:32.849Z,10.7
2018-04-25T04:40:35.795Z,10.8
2018-04-25T04:41:38.188Z,10.8
2018-04-25T04:42:40.575Z,10.8
2018-04-25T04:43:42.940Z,10.8
2018-04-25T04:44:45.331Z,10.8
2018-04-25T04:45:47.706Z,10.8
2018-04-25T04:46:50.096Z,10.8
2018-04-25T04:47:52.473Z,10.8
2018-04-25T04:48:54.861Z,10.9
2018-04-25T04:49:57.241Z,10.9
2018-04-25T04:51:00.323Z,10.9
2018-04-25T04:52:02.699Z,10.9
2018-04-25T04:53:05.090Z,10.9
2018-04-25T04:54:07.471Z,10.9
2018-04-25T04:55:09.854Z,10.9
2018-04-25T04:56:12.237Z,11
2018-04-25T04:57:14.627Z,11
2018-04-25T04:58:17.675Z,11
2018-04-25T04:59:20.054Z,11
2018-04-25T05:00:22.426Z,11
2018-04-25T05:01:24.804Z,11.1
2018-04-25T05:02:27.462Z,11.1
2018-04-25T05:03:29.850Z,11.1
2018-04-25T05:04:32.227Z,11.1
2018-04-25T05:05:34.612Z,11.1
2018-04-25T05:06:37.000Z,11.1
2018-04-25T05:07:39.383Z,11.2
2018-04-25T05:08:42.602Z,11.2
2018-04-25T05:09:45.384Z,11.2
2018-04-25T05:10:48.162Z,11.2
2018-04-25T05:11:50.589Z,11.2
2018-04-25T05:12:52.920Z,11.2
2018-04-25T05:13:55.587Z,11.3
2018-04-25T05:14:57.960Z,11.3
2018-04-25T05:16:00.619Z,11.3
2018-04-25T05:17:03.279Z,11.3
2018-04-25T05:18:05.657Z,11.3
2018-04-25T05:19:08.058Z,11.3
2018-04-25T05:20:10.428Z,11.3
2018-04-25T05:21:12.805Z,11.3
2018-04-25T05:22:15.192Z,11.4
2018-04-25T05:23:18.240Z,11.4
2018-04-25T05:24:20.679Z,11.4
2018-04-25T05:25:23.422Z,11.4
2018-04-25T05:26:25.790Z,11.4
2018-04-25T05:27:28.170Z,11.4
2018-04-25T05:28:30.554Z,11.4
2018-04-25T05:29:33.311Z,11.4
2018-04-25T05:30:35.695Z,11.4
2018-04-25T05:31:38.350Z,11.5
2018-04-25T05:32:40.729Z,11.5
2018-04-25T05:33:43.119Z,11.5
2018-04-25T05:34:45.887Z,11.5
2018-04-25T05:35:48.264Z,11.5
2018-04-25T05:36:50.923Z,11.5
2018-04-25T05:37:53.318Z,11.6
2018-04-25T05:38:55.695Z,11.6
2018-04-25T05:39:58.465Z,11.6
2018-04-25T05:41:00.842Z,11.6
2018-04-25T05:42:03.275Z,11.6
2018-04-25T05:43:05.651Z,11.6
2018-04-25T05:44:08.047Z,11.7
2018-04-25T05:45:10.695Z,11.7
2018-04-25T05:46:13.095Z,11.7
2018-04-25T05:47:15.474Z,11.7
2018-04-25T05:48:17.864Z,11.7
2018-04-25T05:49:20.240Z,11.7
2018-04-25T05:50:22.620Z,11.8
2018-04-25T05:51:25.877Z,11.8
2018-04-25T05:52:28.269Z,11.8
2018-04-25T05:53:30.649Z,11.8
2018-04-25T05:54:33.039Z,11.8
2018-04-25T05:55:35.419Z,11.9
2018-04-25T05:56:37.811Z,11.9
2018-04-25T05:57:40.571Z,11.9
2018-04-25T05:58:42.971Z,11.9
2018-04-25T05:59:45.346Z,11.9
2018-04-25T06:00:48.675Z,11.9
2018-04-25T06:01:51.341Z,11.9
2018-04-25T06:02:54.011Z,12
2018-04-25T06:03:56.391Z,12
2018-04-25T06:04:58.780Z,12
2018-04-25T06:06:01.164Z,12
2018-04-25T06:07:03.973Z,12.1
2018-04-25T06:08:06.344Z,12.1
2018-04-25T06:09:08.740Z,12.1
2018-04-25T06:10:11.121Z,12.1
2018-04-25T06:11:14.164Z,12.1
2018-04-25T06:12:16.603Z,12.2
2018-04-25T06:13:18.951Z,12.2
2018-04-25T06:14:21.334Z,12.2
2018-04-25T06:15:23.721Z,12.2
2018-04-25T06:16:26.095Z,12.2
2018-04-25T06:17:28.484Z,12.3
2018-04-25T06:18:30.866Z,12.3
2018-04-25T06:19:33.542Z,12.3
2018-04-25T06:20:35.923Z,12.3
2018-04-25T06:21:38.306Z,12.3
2018-04-25T06:22:40.690Z,12.3
2018-04-25T06:23:43.092Z,12.4
2018-04-25T06:24:45.468Z,12.4
2018-04-25T06:25:47.849Z,12.3
2018-04-25T06:26:50.801Z,12.3
2018-04-25T06:27:53.184Z,12.4
2018-04-25T06:28:55.570Z,12.4
2018-04-25T06:29:58.235Z,12.4
2018-04-25T06:31:00.617Z,12.5
2018-04-25T06:32:03.295Z,12.5
2018-04-25T06:33:05.672Z,12.6
2018-04-25T06:34:08.058Z,12.5
2018-04-25T06:35:10.998Z,12.5
2018-04-25T06:36:13.377Z,12.6
2018-04-25T06:37:16.064Z,12.6
2018-04-25T06:38:18.449Z,12.6
2018-04-25T06:39:20.909Z,12.6
2018-04-25T06:40:23.219Z,12.6
2018-04-25T06:41:25.603Z,12.6
2018-04-25T06:42:27.994Z,12.7
2018-04-25T06:43:30.394Z,12.8
2018-04-25T06:44:32.770Z,12.9
2018-04-25T06:45:35.153Z,13
2018-04-25T06:46:37.818Z,13.1
2018-04-25T06:47:40.203Z,13.1
2018-04-25T06:48:42.581Z,13
2018-04-25T06:49:44.980Z,13.1
2018-04-25T06:50:47.445Z,13.1
2018-04-25T06:51:49.737Z,13.2
2018-04-25T06:52:52.123Z,13.2
2018-04-25T06:53:54.509Z,13.3
2018-04-25T06:54:56.884Z,13.3
2018-04-25T06:55:59.264Z,13.3
2018-04-25T06:57:01.653Z,13.3
2018-04-25T06:58:04.054Z,13.4
2018-04-25T06:59:06.712Z,13.4
2018-04-25T07:00:09.104Z,13.4
2018-04-25T07:01:11.496Z,13.4
2018-04-25T07:02:14.175Z,13.4
2018-04-25T07:03:16.954Z,13.4
2018-04-25T07:04:19.330Z,13.4
2018-04-25T07:05:21.713Z,13.5
2018-04-25T07:06:24.678Z,13.5
2018-04-25T07:07:27.059Z,13.5
2018-04-25T07:08:29.446Z,13.5
2018-04-25T07:09:31.828Z,13.5
2018-04-25T07:10:34.508Z,13.6
2018-04-25T07:11:36.905Z,13.6
2018-04-25T07:12:39.949Z,13.7
2018-04-25T07:13:42.333Z,13.8
2018-04-25T07:14:44.723Z,13.9
2018-04-25T07:15:47.118Z,13.9
2018-04-25T07:16:49.508Z,14
2018-04-25T07:17:51.884Z,14.1
2018-04-25T07:18:54.284Z,14.1
2018-04-25T07:19:56.664Z,14.2
2018-04-25T07:20:59.055Z,14.3
2018-04-25T07:22:01.439Z,14.5
2018-04-25T07:23:03.833Z,14.4
2018-04-25T07:24:06.215Z,14.4
2018-04-25T07:25:08.991Z,14.4
2018-04-25T07:26:11.385Z,14.4
2018-04-25T07:27:13.773Z,14.6
2018-04-25T07:28:16.160Z,14.6
2018-04-25T07:29:18.558Z,14.5
2018-04-25T07:30:20.942Z,14.4
2018-04-25T07:31:23.342Z,14.4
2018-04-25T07:32:25.710Z,14.4
2018-04-25T07:33:28.767Z,14.4
2018-04-25T07:34:31.153Z,14.4
2018-04-25T07:35:33.549Z,14.5
2018-04-25T07:36:35.939Z,14.4
2018-04-25T07:37:38.318Z,14.4
2018-04-25T07:38:40.709Z,14.3
2018-04-25T07:39:43.087Z,14.3
2018-04-25T07:40:45.753Z,14.3
2018-04-25T07:41:48.708Z,14.3
2018-04-25T07:42:51.383Z,14.3
2018-04-25T07:43:53.772Z,14.3
2018-04-25T07:44:56.157Z,14.3
2018-04-25T07:45:58.829Z,14.3
2018-04-25T07:47:01.220Z,14.2
2018-04-25T07:48:03.625Z,14.2
2018-04-25T07:49:05.990Z,14.2
2018-04-25T07:50:08.384Z,14.2
2018-04-25T07:51:10.764Z,14.2
2018-04-25T07:52:13.240Z,14.2
2018-04-25T07:53:15.551Z,14.2
2018-04-25T07:54:18.214Z,14.3
2018-04-25T07:55:20.606Z,14.3
2018-04-25T07:56:23.010Z,14.4
2018-04-25T07:57:25.676Z,14.5
2018-04-25T07:58:28.361Z,14.6
2018-04-25T07:59:31.029Z,14.6
2018-04-25T08:00:33.722Z,14.5
2018-04-25T08:01:36.394Z,14.6
2018-04-25T08:02:39.167Z,14.6
2018-04-25T08:03:41.540Z,14.7
2018-04-25T08:04:43.935Z,14.7
2018-04-25T08:05:46.339Z,14.7
2018-04-25T08:06:48.719Z,14.9
2018-04-25T08:07:51.489Z,15
2018-04-25T08:08:53.876Z,15.1
2018-04-25T08:09:56.261Z,15.1
2018-04-25T08:10:59.039Z,15.1
2018-04-25T08:12:01.424Z,15.1
2018-04-25T08:13:04.085Z,15.2
2018-04-25T08:14:06.476Z,15.2
2018-04-25T08:15:09.257Z,15.2
2018-04-25T08:16:11.642Z,15.1
2018-04-25T08:17:14.037Z,15.2
2018-04-25T08:18:16.423Z,15.1
2018-04-25T08:19:19.189Z,15
2018-04-25T08:20:21.587Z,15
2018-04-25T08:21:23.974Z,15
2018-04-25T08:22:26.356Z,15
2018-04-25T08:23:29.052Z,14.9
2018-04-25T08:24:31.442Z,14.8
2018-04-25T08:25:34.106Z,14.8
2018-04-25T08:26:36.788Z,14.6
2018-04-25T08:27:39.591Z,14.6
2018-04-25T08:28:42.265Z,14.5
2018-04-25T08:29:44.669Z,14.5
2018-04-25T08:30:47.054Z,14.4
2018-04-25T08:31:49.442Z,14.3
2018-04-25T08:32:51.832Z,14.3
2018-04-25T08:33:54.228Z,14.1
2018-04-25T08:34:56.621Z,14
2018-04-25T08:35:59.289Z,14
2018-04-25T08:37:01.734Z,13.9
2018-04-25T08:38:04.061Z,13.8
2018-04-25T08:39:06.727Z,13.8
2018-04-25T08:40:09.102Z,13.7
2018-04-25T08:41:11.491Z,13.6
2018-04-25T08:42:14.261Z,13.6
2018-04-25T08:43:16.654Z,13.6
2018-04-25T08:44:19.039Z,13.6
2018-04-25T08:45:21.712Z,13.8
2018-04-25T08:46:24.093Z,13.9
2018-04-25T08:47:26.760Z,14
2018-04-25T08:48:29.139Z,13.9
2018-04-25T08:49:31.536Z,14
2018-04-25T08:50:33.991Z,14
2018-04-25T08:51:36.318Z,14.2
2018-04-25T08:52:38.806Z,14.3
2018-04-25T08:53:41.110Z,14.4
2018-04-25T08:54:43.571Z,14.5
2018-04-25T08:55:45.902Z,14.5
2018-04-25T08:56:48.584Z,14.8
2018-04-25T08:57:51.257Z,14.8
2018-04-25T08:58:53.643Z,15
2018-04-25T08:59:56.412Z,15
2018-04-25T09:00:58.801Z,15
2018-04-25T09:02:01.587Z,15
2018-04-25T09:03:03.956Z,15.1
2018-04-25T09:04:06.634Z,15
2018-04-25T09:05:09.320Z,15
2018-04-25T09:06:11.703Z,15
2018-04-25T09:07:14.381Z,15.2
2018-04-25T09:08:17.442Z,15.3
2018-04-25T09:09:20.114Z,15.3
2018-04-25T09:10:22.514Z,15.2
2018-04-25T09:11:24.887Z,15.2
2018-04-25T09:12:27.290Z,15.2
2018-04-25T09:13:29.670Z,15.2
2018-04-25T09:14:32.064Z,15.1
2018-04-25T09:15:34.502Z,15
2018-04-25T09:16:37.287Z,14.9
2018-04-25T09:17:39.665Z,14.9
2018-04-25T09:18:42.067Z,14.9
2018-04-25T09:19:44.450Z,14.9
2018-04-25T09:20:47.126Z,14.9
2018-04-25T09:21:49.518Z,14.8
2018-04-25T09:22:51.902Z,14.9
2018-04-25T09:23:54.666Z,15
2018-04-25T09:24:57.331Z,14.9
2018-04-25T09:25:59.726Z,14.9
2018-04-25T09:27:02.407Z,14.8
2018-04-25T09:28:05.076Z,14.8
2018-04-25T09:29:07.767Z,14.9
2018-04-25T09:30:42.555Z,14.9
2018-04-25T09:31:46.192Z,14.9
2018-04-25T09:32:48.857Z,15
2018-04-25T09:33:51.244Z,15.2
2018-04-25T09:34:53.911Z,15.2
2018-04-25T09:35:56.306Z,15.2
2018-04-25T09:36:58.690Z,15.1
2018-04-25T09:38:01.087Z,15.1
2018-04-25T09:39:03.740Z,15.1
2018-04-25T09:40:06.409Z,15.1
2018-04-25T09:41:08.797Z,15.1
2018-04-25T09:42:11.177Z,15
2018-04-25T09:43:13.563Z,15
2018-04-25T09:44:16.641Z,15.2
2018-04-25T09:45:19.310Z,15.4
2018-04-25T09:46:21.710Z,15.7
2018-04-25T09:47:24.097Z,15.9
2018-04-25T09:48:26.477Z,16.1
2018-04-25T09:49:28.875Z,16.3
2018-04-25T09:50:31.262Z,16.6
2018-04-25T09:51:33.652Z,16.9
2018-04-25T09:52:36.046Z,16.7
2018-04-25T09:53:38.424Z,16.6
2018-04-25T09:54:41.201Z,16.8
2018-04-25T09:55:43.588Z,16.6
2018-04-25T09:56:45.972Z,16.8
2018-04-25T09:57:48.405Z,16.6
2018-04-25T09:58:50.751Z,16.6
2018-04-25T09:59:53.134Z,16.5
2018-04-25T10:00:55.535Z,16.4
2018-04-25T10:01:57.925Z,16.4
2018-04-25T10:03:00.321Z,16.3
2018-04-25T10:04:03.194Z,16
2018-04-25T10:05:06.168Z,15.8
2018-04-25T10:06:08.551Z,15.8
2018-04-25T10:07:10.938Z,15.6
2018-04-25T10:08:13.327Z,15.6
2018-04-25T10:09:15.715Z,15.6
2018-04-25T10:10:18.402Z,15.7
2018-04-25T10:11:20.807Z,15.8
2018-04-25T10:12:23.178Z,15.6
2018-04-25T10:13:25.571Z,15.6
2018-04-25T10:14:27.967Z,15.5
2018-04-25T10:15:30.747Z,15.6
2018-04-25T10:16:33.136Z,15.6
2018-04-25T10:17:35.530Z,15.4
2018-04-25T10:18:37.909Z,15.5
2018-04-25T10:19:40.307Z,15.5
2018-04-25T10:20:42.696Z,15.5
2018-04-25T10:21:45.084Z,15.6
2018-04-25T10:22:47.485Z,15.4
2018-04-25T10:23:50.328Z,15.4
2018-04-25T10:24:52.704Z,15.5
2018-04-25T10:25:55.107Z,15.6
2018-04-25T10:26:57.487Z,15.5
2018-04-25T10:27:59.880Z,15.4
2018-04-25T10:29:02.269Z,15.4
2018-04-25T10:30:04.661Z,15.5
2018-04-25T10:31:07.057Z,16
2018-04-25T10:32:09.458Z,16
2018-04-25T10:33:12.127Z,15.9
2018-04-25T10:34:14.514Z,16
2018-04-25T10:35:16.903Z,15.9
2018-04-25T10:36:20.163Z,15.7
2018-04-25T10:37:22.555Z,15.6
2018-04-25T10:38:24.980Z,15.5
2018-04-25T10:39:27.377Z,15.4
2018-04-25T10:40:30.164Z,15.3
2018-04-25T10:41:32.523Z,15.2
2018-04-25T10:42:34.920Z,15.1
2018-04-25T10:43:37.682Z,15.1
2018-04-25T10:44:40.070Z,15
2018-04-25T10:45:42.467Z,15
2018-04-25T10:46:44.845Z,15
2018-04-25T10:47:47.235Z,15
2018-04-25T10:48:50.004Z,15.3
2018-04-25T10:49:52.395Z,15.6
2018-04-25T10:50:54.798Z,15.6
2018-04-25T10:51:57.180Z,15.6
2018-04-25T10:53:00.225Z,15.8
2018-04-25T10:54:02.996Z,15.6
2018-04-25T10:55:05.670Z,15.4
2018-04-25T10:56:08.062Z,15.4
2018-04-25T10:57:10.464Z,15.4
2018-04-25T10:58:13.162Z,15.3
2018-04-25T10:59:15.573Z,15
2018-04-25T11:00:17.982Z,15.1
2018-04-25T11:01:20.363Z,14.9
2018-04-25T11:02:23.216Z,14.9
2018-04-25T11:03:25.593Z,15
2018-04-25T11:04:28.283Z,15
2018-04-25T11:05:30.656Z,15.1
2018-04-25T11:06:33.047Z,15.1
2018-04-25T11:07:35.716Z,14.9
2018-04-25T11:08:38.403Z,14.9
2018-04-25T11:09:41.194Z,14.7
2018-04-25T11:10:43.569Z,14.6
2018-04-25T11:11:45.965Z,14.6
2018-04-25T11:12:48.636Z,14.4
2018-04-25T11:13:51.020Z,14.4
2018-04-25T11:14:53.404Z,14.4
2018-04-25T11:15:55.787Z,14.3
2018-04-25T11:16:58.172Z,14.1
2018-04-25T11:18:00.566Z,14.2
2018-04-25T11:19:03.346Z,14.3
2018-04-25T11:20:06.115Z,14.3
2018-04-25T11:21:08.803Z,14.1
2018-04-25T11:22:11.188Z,14
2018-04-25T11:23:13.571Z,14.1
2018-04-25T11:24:15.962Z,14.1
2018-04-25T11:25:18.620Z,14.3
2018-04-25T11:26:21.014Z,14.1
2018-04-25T11:27:23.399Z,14
2018-04-25T11:28:25.789Z,13.9
2018-04-25T11:29:28.167Z,13.8
2018-04-25T11:30:30.566Z,13.8
2018-04-25T11:31:33.231Z,13.8
2018-04-25T11:32:36.285Z,13.9
2018-04-25T11:33:38.678Z,13.7
2018-04-25T11:34:41.345Z,13.6
2018-04-25T11:35:43.997Z,13.6
2018-04-25T11:36:46.777Z,13.5
2018-04-25T11:37:49.167Z,13.2
2018-04-25T11:38:51.556Z,13.2
2018-04-25T11:39:53.940Z,13.1
2018-04-25T11:40:56.330Z,12.9
2018-04-25T11:41:58.725Z,13
2018-04-25T11:43:01.134Z,12.8
2018-04-25T11:44:03.825Z,12.7
2018-04-25T11:45:06.204Z,12.8
2018-04-25T11:46:08.591Z,12.8
2018-04-25T11:47:10.991Z,12.6
2018-04-25T11:48:13.785Z,12.5
2018-04-25T11:49:16.176Z,12.5
2018-04-25T11:50:18.545Z,12.4
2018-04-25T11:51:20.931Z,12.3
2018-04-25T11:52:23.323Z,12.4
2018-04-25T11:53:25.992Z,12.4
2018-04-25T11:54:28.379Z,12.2
2018-04-25T11:55:30.765Z,12.2
2018-04-25T11:56:33.160Z,12.1
2018-04-25T11:57:35.555Z,12.2
2018-04-25T11:58:37.935Z,12.1
2018-04-25T11:59:40.321Z,12.1
2018-04-25T12:00:42.706Z,12.1
2018-04-25T12:01:45.091Z,12
2018-04-25T12:02:47.561Z,12.1
2018-04-25T12:03:49.865Z,12.1
2018-04-25T12:04:52.249Z,12
2018-04-25T12:05:54.638Z,12
2018-04-25T12:06:57.393Z,12
2018-04-25T12:07:59.798Z,11.9
2018-04-25T12:09:02.566Z,12
2018-04-25T12:10:04.948Z,11.9
2018-04-25T12:11:07.623Z,11.9
2018-04-25T12:12:10.010Z,11.9
2018-04-25T12:13:12.856Z,11.8
2018-04-25T12:14:15.493Z,11.8
2018-04-25T12:15:17.880Z,11.8
2018-04-25T12:16:20.548Z,11.8
2018-04-25T12:17:22.937Z,11.8
2018-04-25T12:18:25.982Z,11.8
2018-04-25T12:19:28.385Z,11.8
2018-04-25T12:20:31.054Z,11.8
2018-04-25T12:21:33.723Z,11.7
2018-04-25T12:22:36.136Z,11.7
2018-04-25T12:23:38.673Z,11.7
2018-04-25T12:24:41.431Z,11.7
2018-04-25T12:25:44.306Z,11.7
2018-04-25T12:26:47.031Z,11.5
2018-04-25T12:27:49.728Z,11.6
2018-04-25T12:28:52.404Z,11.5
2018-04-25T12:29:55.956Z,11.5
2018-04-25T12:30:58.345Z,11.5
2018-04-25T12:32:00.777Z,11.3
2018-04-25T12:33:03.179Z,11.2
2018-04-25T12:34:06.541Z,11.1
2018-04-25T12:35:09.056Z,11.1
2018-04-25T12:36:11.478Z,11.1
2018-04-25T12:37:14.188Z,11.1
2018-04-25T12:38:16.661Z,11.2
2018-04-25T12:39:19.441Z,11.3
2018-04-25T12:40:22.056Z,11.6
2018-04-25T12:41:24.736Z,11.7
2018-04-25T12:42:27.437Z,11.6
2018-04-25T12:43:30.165Z,11.7
2018-04-25T12:44:32.576Z,12
2018-04-25T12:45:35.177Z,11.8
2018-04-25T12:46:38.016Z,11.9
2018-04-25T12:47:41.045Z,11.8
2018-04-25T12:48:43.721Z,11.9
2018-04-25T12:49:46.624Z,11.9
2018-04-25T12:50:49.287Z,11.8
2018-04-25T12:51:52.912Z,11.9
2018-04-25T12:52:56.242Z,11.9
2018-04-25T12:53:58.962Z,12
2018-04-25T12:55:02.442Z,11.9
2018-04-25T12:56:04.843Z,11.6
2018-04-25T12:57:07.823Z,11.6
2018-04-25T12:58:10.200Z,11.7
2018-04-25T12:59:13.583Z,11.6
2018-04-25T13:00:16.014Z,11.4
2018-04-25T13:01:18.995Z,11.3
2018-04-25T13:02:22.968Z,11.2
2018-04-25T13:03:25.656Z,11.5
2018-04-25T13:04:29.620Z,11.3
2018-04-25T13:05:32.469Z,11.2
2018-04-25T13:06:34.907Z,11.3
2018-04-25T13:07:37.531Z,11.2
2018-04-25T13:08:40.339Z,11.1
2018-04-25T13:09:42.859Z,11.1
2018-04-25T13:10:45.245Z,11.1
2018-04-25T13:11:47.628Z,11.2
2018-04-25T13:12:50.017Z,11.4
2018-04-25T13:13:52.412Z,11.3
2018-04-25T13:14:55.080Z,11.4
2018-04-25T13:15:57.467Z,11.3
2018-04-25T13:17:00.240Z,11.3
2018-04-25T13:18:02.905Z,11.4
2018-04-25T13:19:05.296Z,11.2
2018-04-25T13:20:07.677Z,11
2018-04-25T13:21:10.056Z,10.9
2018-04-25T13:22:12.442Z,10.8
2018-04-25T13:23:14.815Z,10.9
2018-04-25T13:24:17.484Z,11
2018-04-25T13:25:20.464Z,10.8
2018-04-25T13:26:22.848Z,10.9
2018-04-25T13:27:25.232Z,10.9
2018-04-25T13:28:27.613Z,10.7
2018-04-25T13:29:30.009Z,10.4
2018-04-25T13:30:32.386Z,10.4
2018-04-25T13:31:34.772Z,10.4
2018-04-25T13:32:37.450Z,10.3
2018-04-25T13:33:39.837Z,10.4
2018-04-25T13:34:42.492Z,10.2
2018-04-25T13:35:44.878Z,10.2
2018-04-25T13:36:47.555Z,10.1
2018-04-25T13:37:49.950Z,10.1
2018-04-25T13:38:52.389Z,10.2
2018-04-25T13:39:55.047Z,10.1
2018-04-25T13:40:57.441Z,9.9
2018-04-25T13:42:00.212Z,10
2018-04-25T13:43:02.584Z,10
2018-04-25T13:44:04.973Z,10
2018-04-25T13:45:07.356Z,9.9
2018-04-25T13:46:09.731Z,10
2018-04-25T13:47:12.403Z,9.9
2018-04-25T13:48:14.785Z,9.9
2018-04-25T13:49:17.158Z,9.8
2018-04-25T13:50:19.537Z,9.9
2018-04-25T13:51:21.928Z,9.8
2018-04-25T13:52:24.621Z,9.8
2018-04-25T13:53:27.296Z,9.8
2018-04-25T13:54:29.692Z,9.7
2018-04-25T13:55:32.079Z,9.7
2018-04-25T13:56:34.487Z,9.8
2018-04-25T13:57:36.868Z,9.7
2018-04-25T13:58:39.268Z,9.7
2018-04-25T13:59:41.655Z,9.7
2018-04-25T14:00:44.683Z,9.8
2018-04-25T14:01:47.016Z,9.8
2018-04-25T14:02:49.408Z,9.8
2018-04-25T14:03:51.791Z,9.8
2018-04-25T14:04:54.176Z,9.9